sensor_id;sensor_type;location;lat;lon;timestamp;P1;durP1;ratioP1;P2;durP2;ratioP2
60088;SDS011;45961;53.574;55.878;2022-12-10T00:00:02;11.25;;;5.60;;
60088;SDS011;45961;53.574;55.878;2022-12-10T00:02:11;18.65;;;6.78;;
60088;SDS011;45961;53.574;55.878;2022-12-10T00:03:12;12.02;;;6.72;;
60088;SDS011;45961;53.574;55.878;2022-12-10T00:04:13;10.95;;;5.53;;
60088;SDS011;45961;53.574;55.878;2022-12-10T00:05:14;8.88;;;4.90;;
60088;SDS011;45961;53.574;55.878;2022-12-10T00:06:16;13.98;;;6.95;;
60088;SDS011;45961;53.574;55.878;2022-12-10T00:07:19;18.13;;;7.90;;
60088;SDS011;45961;53.574;55.878;2022-12-10T00:08:19;16.30;;;6.90;;
60088;SDS011;45961;53.574;55.878;2022-12-10T00:09:20;15.70;;;7.10;;
60088;SDS011;45961;53.574;55.878;2022-12-10T00:10:21;12.63;;;6.60;;
60088;SDS011;45961;53.574;55.878;2022-12-10T00:11:22;16.90;;;6.40;;
60088;SDS011;45961;53.574;55.878;2022-12-10T00:12:25;16.23;;;8.10;;
60088;SDS011;45961;53.574;55.878;2022-12-10T00:13:26;10.98;;;6.15;;
60088;SDS011;45961;53.574;55.878;2022-12-10T00:14:26;11.00;;;6.72;;
60088;SDS011;45961;53.574;55.878;2022-12-10T00:15:27;18.13;;;7.88;;
60088;SDS011;45961;53.574;55.878;2022-12-10T00:16:28;14.60;;;7.15;;
60088;SDS011;45961;53.574;55.878;2022-12-10T00:17:30;19.60;;;7.68;;
60088;SDS011;45961;53.574;55.878;2022-12-10T00:18:32;13.25;;;7.63;;
60088;SDS011;45961;53.574;55.878;2022-12-10T00:19:33;12.32;;;6.38;;
60088;SDS011;45961;53.574;55.878;2022-12-10T00:22:37;5.60;;;4.63;;
60088;SDS011;45961;53.574;55.878;2022-12-10T00:23:38;10.93;;;5.90;;
60088;SDS011;45961;53.574;55.878;2022-12-10T00:24:40;14.63;;;6.63;;
60088;SDS011;45961;53.574;55.878;2022-12-10T00:25:41;8.32;;;4.80;;
60088;SDS011;45961;53.574;55.878;2022-12-10T00:26:42;11.60;;;5.90;;
60088;SDS011;45961;53.574;55.878;2022-12-10T00:27:46;13.48;;;6.50;;
60088;SDS011;45961;53.574;55.878;2022-12-10T00:28:47;8.52;;;5.57;;
60088;SDS011;45961;53.574;55.878;2022-12-10T00:29:49;13.50;;;7.28;;
60088;SDS011;45961;53.574;55.878;2022-12-10T00:30:50;11.95;;;6.40;;
60088;SDS011;45961;53.574;55.878;2022-12-10T00:31:51;8.32;;;5.28;;
60088;SDS011;45961;53.574;55.878;2022-12-10T00:32:51;15.20;;;8.73;;
60088;SDS011;45961;53.574;55.878;2022-12-10T00:33:53;11.70;;;5.78;;
60088;SDS011;45961;53.574;55.878;2022-12-10T00:34:55;11.90;;;5.85;;
60088;SDS011;45961;53.574;55.878;2022-12-10T00:37:01;10.35;;;4.82;;
60088;SDS011;45961;53.574;55.878;2022-12-10T00:39:04;15.30;;;5.45;;
60088;SDS011;45961;53.574;55.878;2022-12-10T00:40:05;8.48;;;4.82;;
60088;SDS011;45961;53.574;55.878;2022-12-10T00:41:07;9.73;;;5.13;;
60088;SDS011;45961;53.574;55.878;2022-12-10T00:42:09;14.60;;;6.13;;
60088;SDS011;45961;53.574;55.878;2022-12-10T00:44:12;7.25;;;5.40;;
60088;SDS011;45961;53.574;55.878;2022-12-10T00:45:13;8.90;;;5.72;;
60088;SDS011;45961;53.574;55.878;2022-12-10T00:46:15;6.80;;;4.05;;
60088;SDS011;45961;53.574;55.878;2022-12-10T00:47:18;12.68;;;6.43;;
60088;SDS011;45961;53.574;55.878;2022-12-10T00:48:19;10.50;;;5.00;;
60088;SDS011;45961;53.574;55.878;2022-12-10T00:49:21;11.02;;;6.03;;
60088;SDS011;45961;53.574;55.878;2022-12-10T00:50:24;9.75;;;6.07;;
60088;SDS011;45961;53.574;55.878;2022-12-10T00:51:26;12.77;;;7.20;;
60088;SDS011;45961;53.574;55.878;2022-12-10T00:52:28;8.65;;;5.05;;
60088;SDS011;45961;53.574;55.878;2022-12-10T00:53:32;15.35;;;7.18;;
60088;SDS011;45961;53.574;55.878;2022-12-10T00:54:34;10.90;;;6.13;;
60088;SDS011;45961;53.574;55.878;2022-12-10T00:55:35;10.40;;;6.22;;
60088;SDS011;45961;53.574;55.878;2022-12-10T00:56:36;11.10;;;4.95;;
60088;SDS011;45961;53.574;55.878;2022-12-10T00:57:37;17.85;;;7.18;;
60088;SDS011;45961;53.574;55.878;2022-12-10T00:58:38;8.68;;;6.45;;
60088;SDS011;45961;53.574;55.878;2022-12-10T00:59:39;10.98;;;5.85;;
60088;SDS011;45961;53.574;55.878;2022-12-10T01:00:40;10.50;;;6.50;;
60088;SDS011;45961;53.574;55.878;2022-12-10T01:01:41;13.40;;;7.20;;
60088;SDS011;45961;53.574;55.878;2022-12-10T01:02:43;14.48;;;7.80;;
60088;SDS011;45961;53.574;55.878;2022-12-10T01:05:47;5.77;;;4.67;;
60088;SDS011;45961;53.574;55.878;2022-12-10T01:06:51;6.85;;;4.72;;
60088;SDS011;45961;53.574;55.878;2022-12-10T01:07:53;8.77;;;4.50;;
60088;SDS011;45961;53.574;55.878;2022-12-10T01:08:55;11.82;;;6.03;;
60088;SDS011;45961;53.574;55.878;2022-12-10T01:09:59;13.48;;;5.97;;
60088;SDS011;45961;53.574;55.878;2022-12-10T01:11:01;13.55;;;6.32;;
60088;SDS011;45961;53.574;55.878;2022-12-10T01:12:02;9.98;;;5.82;;
60088;SDS011;45961;53.574;55.878;2022-12-10T01:13:04;10.93;;;6.13;;
60088;SDS011;45961;53.574;55.878;2022-12-10T01:14:05;12.48;;;5.78;;
60088;SDS011;45961;53.574;55.878;2022-12-10T01:15:08;11.30;;;6.65;;
60088;SDS011;45961;53.574;55.878;2022-12-10T01:16:11;9.88;;;5.75;;
60088;SDS011;45961;53.574;55.878;2022-12-10T01:17:14;13.52;;;5.40;;
60088;SDS011;45961;53.574;55.878;2022-12-10T01:18:15;8.98;;;5.25;;
60088;SDS011;45961;53.574;55.878;2022-12-10T01:19:16;11.18;;;5.93;;
60088;SDS011;45961;53.574;55.878;2022-12-10T01:21:18;11.07;;;4.83;;
60088;SDS011;45961;53.574;55.878;2022-12-10T01:22:19;10.73;;;5.40;;
60088;SDS011;45961;53.574;55.878;2022-12-10T01:23:20;9.02;;;4.97;;
60088;SDS011;45961;53.574;55.878;2022-12-10T01:24:22;8.95;;;5.50;;
60088;SDS011;45961;53.574;55.878;2022-12-10T01:25:24;10.30;;;6.00;;
60088;SDS011;45961;53.574;55.878;2022-12-10T01:26:26;8.65;;;5.88;;
60088;SDS011;45961;53.574;55.878;2022-12-10T01:27:29;9.88;;;5.38;;
60088;SDS011;45961;53.574;55.878;2022-12-10T01:28:31;12.07;;;5.40;;
60088;SDS011;45961;53.574;55.878;2022-12-10T01:29:33;12.88;;;5.40;;
60088;SDS011;45961;53.574;55.878;2022-12-10T01:30:35;9.98;;;4.28;;
60088;SDS011;45961;53.574;55.878;2022-12-10T01:31:36;11.57;;;6.68;;
60088;SDS011;45961;53.574;55.878;2022-12-10T01:32:39;12.55;;;5.95;;
60088;SDS011;45961;53.574;55.878;2022-12-10T01:34:42;9.10;;;4.82;;
60088;SDS011;45961;53.574;55.878;2022-12-10T01:35:43;8.45;;;4.90;;
60088;SDS011;45961;53.574;55.878;2022-12-10T01:36:44;13.07;;;6.35;;
60088;SDS011;45961;53.574;55.878;2022-12-10T01:37:48;6.68;;;4.68;;
60088;SDS011;45961;53.574;55.878;2022-12-10T01:38:50;11.43;;;6.07;;
60088;SDS011;45961;53.574;55.878;2022-12-10T01:39:51;13.20;;;5.82;;
60088;SDS011;45961;53.574;55.878;2022-12-10T01:40:52;14.27;;;5.40;;
60088;SDS011;45961;53.574;55.878;2022-12-10T01:41:54;9.25;;;5.78;;
60088;SDS011;45961;53.574;55.878;2022-12-10T01:42:57;7.90;;;4.78;;
60088;SDS011;45961;53.574;55.878;2022-12-10T01:44:02;10.77;;;6.18;;
60088;SDS011;45961;53.574;55.878;2022-12-10T01:45:06;15.43;;;6.05;;
60088;SDS011;45961;53.574;55.878;2022-12-10T01:46:09;9.80;;;5.93;;
60088;SDS011;45961;53.574;55.878;2022-12-10T01:47:10;10.35;;;5.88;;
60088;SDS011;45961;53.574;55.878;2022-12-10T01:48:11;5.95;;;4.35;;
60088;SDS011;45961;53.574;55.878;2022-12-10T01:50:19;10.10;;;6.05;;
60088;SDS011;45961;53.574;55.878;2022-12-10T01:51:20;9.75;;;5.32;;
60088;SDS011;45961;53.574;55.878;2022-12-10T01:52:23;10.20;;;5.25;;
60088;SDS011;45961;53.574;55.878;2022-12-10T01:53:25;9.05;;;5.40;;
60088;SDS011;45961;53.574;55.878;2022-12-10T01:54:28;9.57;;;6.00;;
60088;SDS011;45961;53.574;55.878;2022-12-10T01:55:42;10.93;;;6.38;;
60088;SDS011;45961;53.574;55.878;2022-12-10T01:56:50;11.88;;;7.13;;
60088;SDS011;45961;53.574;55.878;2022-12-10T01:57:58;15.60;;;6.85;;
60088;SDS011;45961;53.574;55.878;2022-12-10T01:58:59;12.65;;;6.30;;
60088;SDS011;45961;53.574;55.878;2022-12-10T02:00:01;12.82;;;7.57;;
60088;SDS011;45961;53.574;55.878;2022-12-10T02:01:18;13.95;;;5.25;;
60088;SDS011;45961;53.574;55.878;2022-12-10T02:02:30;11.38;;;6.13;;
60088;SDS011;45961;53.574;55.878;2022-12-10T02:09:26;6.13;;;3.85;;
60088;SDS011;45961;53.574;55.878;2022-12-10T02:11:06;7.90;;;5.65;;
60088;SDS011;45961;53.574;55.878;2022-12-10T02:12:24;8.45;;;5.80;;
60088;SDS011;45961;53.574;55.878;2022-12-10T02:13:55;11.73;;;5.38;;
60088;SDS011;45961;53.574;55.878;2022-12-10T02:16:20;12.57;;;6.43;;
60088;SDS011;45961;53.574;55.878;2022-12-10T02:18:36;8.10;;;4.40;;
60088;SDS011;45961;53.574;55.878;2022-12-10T02:19:51;10.60;;;7.47;;
60088;SDS011;45961;53.574;55.878;2022-12-10T02:20:56;10.93;;;6.57;;
60088;SDS011;45961;53.574;55.878;2022-12-10T02:22:02;11.68;;;8.82;;
60088;SDS011;45961;53.574;55.878;2022-12-10T02:23:09;14.65;;;8.27;;
60088;SDS011;45961;53.574;55.878;2022-12-10T02:24:23;9.05;;;6.80;;
60088;SDS011;45961;53.574;55.878;2022-12-10T02:25:38;14.35;;;8.98;;
60088;SDS011;45961;53.574;55.878;2022-12-10T02:27:04;17.20;;;8.73;;
60088;SDS011;45961;53.574;55.878;2022-12-10T02:29:43;12.30;;;8.65;;
60088;SDS011;45961;53.574;55.878;2022-12-10T02:30:49;11.77;;;8.60;;
60088;SDS011;45961;53.574;55.878;2022-12-10T02:31:56;20.83;;;10.38;;
60088;SDS011;45961;53.574;55.878;2022-12-10T02:33:19;15.30;;;7.50;;
60088;SDS011;45961;53.574;55.878;2022-12-10T02:34:23;20.25;;;9.57;;
60088;SDS011;45961;53.574;55.878;2022-12-10T02:35:30;19.02;;;10.27;;
60088;SDS011;45961;53.574;55.878;2022-12-10T02:36:35;19.90;;;11.00;;
60088;SDS011;45961;53.574;55.878;2022-12-10T02:37:41;20.20;;;11.75;;
60088;SDS011;45961;53.574;55.878;2022-12-10T02:38:47;28.80;;;13.70;;
60088;SDS011;45961;53.574;55.878;2022-12-10T02:39:53;25.35;;;12.70;;
60088;SDS011;45961;53.574;55.878;2022-12-10T02:40:59;19.35;;;12.70;;
60088;SDS011;45961;53.574;55.878;2022-12-10T02:42:06;24.30;;;10.38;;
60088;SDS011;45961;53.574;55.878;2022-12-10T02:43:09;16.65;;;10.00;;
60088;SDS011;45961;53.574;55.878;2022-12-10T02:44:14;17.67;;;8.88;;
60088;SDS011;45961;53.574;55.878;2022-12-10T02:45:22;25.58;;;11.15;;
60088;SDS011;45961;53.574;55.878;2022-12-10T02:46:27;15.15;;;7.75;;
60088;SDS011;45961;53.574;55.878;2022-12-10T02:47:32;12.00;;;8.18;;
60088;SDS011;45961;53.574;55.878;2022-12-10T02:48:35;16.70;;;8.10;;
60088;SDS011;45961;53.574;55.878;2022-12-10T02:49:37;11.50;;;7.43;;
60088;SDS011;45961;53.574;55.878;2022-12-10T02:50:40;16.38;;;6.90;;
60088;SDS011;45961;53.574;55.878;2022-12-10T02:52:42;9.88;;;5.45;;
60088;SDS011;45961;53.574;55.878;2022-12-10T02:54:46;9.98;;;6.15;;
60088;SDS011;45961;53.574;55.878;2022-12-10T02:55:55;12.65;;;5.78;;
60088;SDS011;45961;53.574;55.878;2022-12-10T02:56:58;16.00;;;6.97;;
60088;SDS011;45961;53.574;55.878;2022-12-10T02:58:11;13.18;;;7.50;;
60088;SDS011;45961;53.574;55.878;2022-12-10T02:59:27;11.68;;;6.63;;
60088;SDS011;45961;53.574;55.878;2022-12-10T03:00:38;9.63;;;6.72;;
60088;SDS011;45961;53.574;55.878;2022-12-10T03:05:04;10.77;;;6.05;;
60088;SDS011;45961;53.574;55.878;2022-12-10T03:11:30;14.20;;;8.23;;
60088;SDS011;45961;53.574;55.878;2022-12-10T03:12:36;8.48;;;6.93;;
60088;SDS011;45961;53.574;55.878;2022-12-10T03:15:01;12.40;;;8.07;;
60088;SDS011;45961;53.574;55.878;2022-12-10T03:16:05;16.20;;;8.70;;
60088;SDS011;45961;53.574;55.878;2022-12-10T03:17:07;14.50;;;9.13;;
60088;SDS011;45961;53.574;55.878;2022-12-10T03:18:09;17.42;;;8.57;;
60088;SDS011;45961;53.574;55.878;2022-12-10T03:19:13;11.90;;;6.65;;
60088;SDS011;45961;53.574;55.878;2022-12-10T03:20:19;16.50;;;7.57;;
60088;SDS011;45961;53.574;55.878;2022-12-10T03:21:22;13.45;;;7.00;;
60088;SDS011;45961;53.574;55.878;2022-12-10T03:22:27;12.85;;;6.80;;
60088;SDS011;45961;53.574;55.878;2022-12-10T03:23:29;11.32;;;4.72;;
60088;SDS011;45961;53.574;55.878;2022-12-10T03:24:34;10.98;;;6.03;;
60088;SDS011;45961;53.574;55.878;2022-12-10T03:25:36;10.57;;;5.97;;
60088;SDS011;45961;53.574;55.878;2022-12-10T03:26:39;10.30;;;5.45;;
60088;SDS011;45961;53.574;55.878;2022-12-10T03:27:43;8.18;;;4.95;;
60088;SDS011;45961;53.574;55.878;2022-12-10T03:28:51;13.48;;;6.10;;
60088;SDS011;45961;53.574;55.878;2022-12-10T03:29:58;10.55;;;5.22;;
60088;SDS011;45961;53.574;55.878;2022-12-10T03:31:00;11.20;;;5.65;;
60088;SDS011;45961;53.574;55.878;2022-12-10T03:32:03;13.07;;;6.60;;
60088;SDS011;45961;53.574;55.878;2022-12-10T03:33:05;10.85;;;6.10;;
60088;SDS011;45961;53.574;55.878;2022-12-10T03:34:07;16.30;;;6.60;;
60088;SDS011;45961;53.574;55.878;2022-12-10T03:35:10;12.18;;;7.38;;
60088;SDS011;45961;53.574;55.878;2022-12-10T03:36:12;13.00;;;6.93;;
60088;SDS011;45961;53.574;55.878;2022-12-10T03:37:15;12.98;;;5.72;;
60088;SDS011;45961;53.574;55.878;2022-12-10T03:38:16;10.48;;;5.40;;
60088;SDS011;45961;53.574;55.878;2022-12-10T03:39:18;12.73;;;7.15;;
60088;SDS011;45961;53.574;55.878;2022-12-10T03:40:21;14.45;;;6.97;;
60088;SDS011;45961;53.574;55.878;2022-12-10T03:41:23;13.63;;;7.25;;
60088;SDS011;45961;53.574;55.878;2022-12-10T03:42:25;12.93;;;7.50;;
60088;SDS011;45961;53.574;55.878;2022-12-10T03:43:29;15.68;;;7.10;;
60088;SDS011;45961;53.574;55.878;2022-12-10T03:45:36;6.97;;;5.20;;
60088;SDS011;45961;53.574;55.878;2022-12-10T03:46:37;6.95;;;3.92;;
60088;SDS011;45961;53.574;55.878;2022-12-10T03:47:40;15.13;;;6.30;;
60088;SDS011;45961;53.574;55.878;2022-12-10T03:48:42;11.13;;;6.53;;
60088;SDS011;45961;53.574;55.878;2022-12-10T03:49:43;9.93;;;5.10;;
60088;SDS011;45961;53.574;55.878;2022-12-10T03:50:44;7.53;;;4.40;;
60088;SDS011;45961;53.574;55.878;2022-12-10T03:52:47;10.13;;;4.65;;
60088;SDS011;45961;53.574;55.878;2022-12-10T03:54:50;6.40;;;3.85;;
60088;SDS011;45961;53.574;55.878;2022-12-10T03:55:51;8.40;;;4.97;;
60088;SDS011;45961;53.574;55.878;2022-12-10T03:57:53;5.32;;;2.58;;
60088;SDS011;45961;53.574;55.878;2022-12-10T03:58:54;8.27;;;3.90;;
60088;SDS011;45961;53.574;55.878;2022-12-10T03:59:55;9.38;;;4.90;;
60088;SDS011;45961;53.574;55.878;2022-12-10T04:01:58;5.38;;;3.45;;
60088;SDS011;45961;53.574;55.878;2022-12-10T04:05:03;4.57;;;3.22;;
60088;SDS011;45961;53.574;55.878;2022-12-10T04:06:08;7.32;;;4.72;;
60088;SDS011;45961;53.574;55.878;2022-12-10T04:07:13;7.50;;;4.13;;
60088;SDS011;45961;53.574;55.878;2022-12-10T04:08:14;10.88;;;5.38;;
60088;SDS011;45961;53.574;55.878;2022-12-10T04:09:19;5.82;;;4.32;;
60088;SDS011;45961;53.574;55.878;2022-12-10T04:10:20;8.65;;;4.53;;
60088;SDS011;45961;53.574;55.878;2022-12-10T04:11:21;4.15;;;3.65;;
60088;SDS011;45961;53.574;55.878;2022-12-10T04:12:23;10.23;;;4.72;;
60088;SDS011;45961;53.574;55.878;2022-12-10T04:13:25;10.15;;;4.63;;
60088;SDS011;45961;53.574;55.878;2022-12-10T04:15:06;8.20;;;4.35;;
60088;SDS011;45961;53.574;55.878;2022-12-10T04:16:27;13.48;;;4.32;;
60088;SDS011;45961;53.574;55.878;2022-12-10T04:17:33;5.85;;;3.65;;
60088;SDS011;45961;53.574;55.878;2022-12-10T04:18:34;7.40;;;3.53;;
60088;SDS011;45961;53.574;55.878;2022-12-10T04:19:36;8.85;;;4.38;;
60088;SDS011;45961;53.574;55.878;2022-12-10T04:20:57;8.77;;;4.22;;
60088;SDS011;45961;53.574;55.878;2022-12-10T04:22:30;10.95;;;5.13;;
60088;SDS011;45961;53.574;55.878;2022-12-10T04:23:50;8.95;;;4.07;;
60088;SDS011;45961;53.574;55.878;2022-12-10T04:25:13;9.25;;;4.05;;
60088;SDS011;45961;53.574;55.878;2022-12-10T04:26:33;8.45;;;4.00;;
60088;SDS011;45961;53.574;55.878;2022-12-10T04:27:52;8.88;;;4.35;;
60088;SDS011;45961;53.574;55.878;2022-12-10T04:29:55;9.23;;;4.82;;
60088;SDS011;45961;53.574;55.878;2022-12-10T04:30:57;10.02;;;5.32;;
60088;SDS011;45961;53.574;55.878;2022-12-10T04:31:59;6.50;;;3.88;;
60088;SDS011;45961;53.574;55.878;2022-12-10T04:33:00;13.18;;;6.82;;
60088;SDS011;45961;53.574;55.878;2022-12-10T04:34:02;9.88;;;5.75;;
60088;SDS011;45961;53.574;55.878;2022-12-10T04:35:04;12.85;;;6.47;;
60088;SDS011;45961;53.574;55.878;2022-12-10T04:36:05;8.02;;;5.47;;
60088;SDS011;45961;53.574;55.878;2022-12-10T04:37:08;10.38;;;4.95;;
60088;SDS011;45961;53.574;55.878;2022-12-10T04:38:09;9.30;;;5.72;;
60088;SDS011;45961;53.574;55.878;2022-12-10T04:39:13;6.35;;;4.38;;
60088;SDS011;45961;53.574;55.878;2022-12-10T04:40:16;7.70;;;3.92;;
60088;SDS011;45961;53.574;55.878;2022-12-10T04:41:41;5.90;;;3.92;;
60088;SDS011;45961;53.574;55.878;2022-12-10T04:42:43;12.73;;;5.53;;
60088;SDS011;45961;53.574;55.878;2022-12-10T04:43:48;10.00;;;5.07;;
60088;SDS011;45961;53.574;55.878;2022-12-10T04:44:49;8.52;;;4.32;;
60088;SDS011;45961;53.574;55.878;2022-12-10T04:45:54;9.80;;;5.40;;
60088;SDS011;45961;53.574;55.878;2022-12-10T04:46:56;9.70;;;5.38;;
60088;SDS011;45961;53.574;55.878;2022-12-10T04:47:58;12.60;;;5.55;;
60088;SDS011;45961;53.574;55.878;2022-12-10T04:48:59;8.38;;;4.78;;
60088;SDS011;45961;53.574;55.878;2022-12-10T04:50:01;10.90;;;4.47;;
60088;SDS011;45961;53.574;55.878;2022-12-10T04:51:03;9.57;;;4.60;;
60088;SDS011;45961;53.574;55.878;2022-12-10T04:52:08;6.88;;;4.45;;
60088;SDS011;45961;53.574;55.878;2022-12-10T04:53:12;11.55;;;6.10;;
60088;SDS011;45961;53.574;55.878;2022-12-10T04:54:14;11.10;;;5.15;;
60088;SDS011;45961;53.574;55.878;2022-12-10T04:55:15;8.57;;;5.05;;
60088;SDS011;45961;53.574;55.878;2022-12-10T04:56:18;12.63;;;5.38;;
60088;SDS011;45961;53.574;55.878;2022-12-10T04:57:22;5.88;;;3.78;;
60088;SDS011;45961;53.574;55.878;2022-12-10T04:58:24;9.90;;;5.40;;
60088;SDS011;45961;53.574;55.878;2022-12-10T04:59:26;13.93;;;6.55;;
60088;SDS011;45961;53.574;55.878;2022-12-10T05:00:33;14.57;;;5.68;;
60088;SDS011;45961;53.574;55.878;2022-12-10T05:01:35;8.77;;;4.97;;
60088;SDS011;45961;53.574;55.878;2022-12-10T05:02:36;15.23;;;6.40;;
60088;SDS011;45961;53.574;55.878;2022-12-10T05:03:38;11.90;;;6.40;;
60088;SDS011;45961;53.574;55.878;2022-12-10T05:04:39;11.93;;;6.55;;
60088;SDS011;45961;53.574;55.878;2022-12-10T05:05:41;8.00;;;4.32;;
60088;SDS011;45961;53.574;55.878;2022-12-10T05:06:42;11.38;;;5.45;;
60088;SDS011;45961;53.574;55.878;2022-12-10T05:07:47;9.20;;;4.97;;
60088;SDS011;45961;53.574;55.878;2022-12-10T05:08:48;8.95;;;5.35;;
60088;SDS011;45961;53.574;55.878;2022-12-10T05:09:50;12.18;;;6.22;;
60088;SDS011;45961;53.574;55.878;2022-12-10T05:10:51;9.23;;;5.90;;
60088;SDS011;45961;53.574;55.878;2022-12-10T05:11:56;7.75;;;5.53;;
60088;SDS011;45961;53.574;55.878;2022-12-10T05:12:58;11.88;;;5.10;;
60088;SDS011;45961;53.574;55.878;2022-12-10T05:13:59;11.02;;;6.38;;
60088;SDS011;45961;53.574;55.878;2022-12-10T05:15:01;9.77;;;5.15;;
60088;SDS011;45961;53.574;55.878;2022-12-10T05:16:03;18.10;;;7.05;;
60088;SDS011;45961;53.574;55.878;2022-12-10T05:17:06;15.50;;;6.65;;
60088;SDS011;45961;53.574;55.878;2022-12-10T05:18:07;17.40;;;7.03;;
60088;SDS011;45961;53.574;55.878;2022-12-10T05:19:09;11.75;;;5.85;;
60088;SDS011;45961;53.574;55.878;2022-12-10T05:20:11;13.65;;;6.25;;
60088;SDS011;45961;53.574;55.878;2022-12-10T05:21:13;16.23;;;6.78;;
60088;SDS011;45961;53.574;55.878;2022-12-10T05:22:16;11.75;;;5.15;;
60088;SDS011;45961;53.574;55.878;2022-12-10T05:23:40;7.63;;;5.22;;
60088;SDS011;45961;53.574;55.878;2022-12-10T05:24:43;8.93;;;5.30;;
60088;SDS011;45961;53.574;55.878;2022-12-10T05:25:49;9.10;;;5.20;;
60088;SDS011;45961;53.574;55.878;2022-12-10T05:27:00;6.82;;;4.32;;
60088;SDS011;45961;53.574;55.878;2022-12-10T05:28:01;8.88;;;5.18;;
60088;SDS011;45961;53.574;55.878;2022-12-10T05:29:09;9.90;;;4.97;;
60088;SDS011;45961;53.574;55.878;2022-12-10T05:30:12;10.18;;;5.55;;
60088;SDS011;45961;53.574;55.878;2022-12-10T05:31:16;12.55;;;6.95;;
60088;SDS011;45961;53.574;55.878;2022-12-10T05:32:22;8.25;;;4.70;;
60088;SDS011;45961;53.574;55.878;2022-12-10T05:33:24;12.15;;;6.05;;
60088;SDS011;45961;53.574;55.878;2022-12-10T05:34:26;12.13;;;5.68;;
60088;SDS011;45961;53.574;55.878;2022-12-10T05:35:27;13.05;;;4.70;;
60088;SDS011;45961;53.574;55.878;2022-12-10T05:36:34;9.90;;;4.88;;
60088;SDS011;45961;53.574;55.878;2022-12-10T05:37:36;8.65;;;5.20;;
60088;SDS011;45961;53.574;55.878;2022-12-10T05:38:40;8.25;;;4.88;;
60088;SDS011;45961;53.574;55.878;2022-12-10T05:39:41;7.30;;;4.25;;
60088;SDS011;45961;53.574;55.878;2022-12-10T05:40:45;12.85;;;5.07;;
60088;SDS011;45961;53.574;55.878;2022-12-10T05:42:48;6.35;;;4.13;;
60088;SDS011;45961;53.574;55.878;2022-12-10T05:44:21;7.82;;;4.32;;
60088;SDS011;45961;53.574;55.878;2022-12-10T05:45:22;8.70;;;4.63;;
60088;SDS011;45961;53.574;55.878;2022-12-10T05:46:25;10.98;;;4.95;;
60088;SDS011;45961;53.574;55.878;2022-12-10T05:47:28;7.57;;;4.35;;
60088;SDS011;45961;53.574;55.878;2022-12-10T05:48:35;11.70;;;5.82;;
60088;SDS011;45961;53.574;55.878;2022-12-10T05:49:36;7.85;;;4.20;;
60088;SDS011;45961;53.574;55.878;2022-12-10T05:51:17;9.27;;;4.95;;
60088;SDS011;45961;53.574;55.878;2022-12-10T05:55:13;9.07;;;4.53;;
60088;SDS011;45961;53.574;55.878;2022-12-10T05:58:23;3.75;;;2.28;;
60088;SDS011;45961;53.574;55.878;2022-12-10T06:03:31;2.58;;;2.28;;
60088;SDS011;45961;53.574;55.878;2022-12-10T06:04:55;10.27;;;6.28;;
60088;SDS011;45961;53.574;55.878;2022-12-10T06:07:01;7.20;;;3.70;;
60088;SDS011;45961;53.574;55.878;2022-12-10T06:08:05;12.57;;;6.90;;
60088;SDS011;45961;53.574;55.878;2022-12-10T06:09:11;13.48;;;5.32;;
60088;SDS011;45961;53.574;55.878;2022-12-10T06:10:14;9.32;;;5.53;;
60088;SDS011;45961;53.574;55.878;2022-12-10T06:11:15;10.73;;;5.57;;
60088;SDS011;45961;53.574;55.878;2022-12-10T06:12:18;12.65;;;5.53;;
60088;SDS011;45961;53.574;55.878;2022-12-10T06:13:39;12.77;;;6.50;;
60088;SDS011;45961;53.574;55.878;2022-12-10T06:15:42;14.95;;;7.63;;
60088;SDS011;45961;53.574;55.878;2022-12-10T06:16:44;14.27;;;7.00;;
60088;SDS011;45961;53.574;55.878;2022-12-10T06:17:45;15.00;;;7.45;;
60088;SDS011;45961;53.574;55.878;2022-12-10T06:18:49;13.25;;;7.90;;
60088;SDS011;45961;53.574;55.878;2022-12-10T06:19:52;9.25;;;6.28;;
60088;SDS011;45961;53.574;55.878;2022-12-10T06:20:54;12.95;;;7.38;;
60088;SDS011;45961;53.574;55.878;2022-12-10T06:23:09;16.48;;;5.30;;
60088;SDS011;45961;53.574;55.878;2022-12-10T06:24:10;8.30;;;4.85;;
60088;SDS011;45961;53.574;55.878;2022-12-10T06:25:32;13.73;;;5.82;;
60088;SDS011;45961;53.574;55.878;2022-12-10T06:26:34;7.18;;;4.78;;
60088;SDS011;45961;53.574;55.878;2022-12-10T06:27:35;12.02;;;4.70;;
60088;SDS011;45961;53.574;55.878;2022-12-10T06:28:37;10.60;;;6.03;;
60088;SDS011;45961;53.574;55.878;2022-12-10T06:29:38;13.93;;;5.55;;
60088;SDS011;45961;53.574;55.878;2022-12-10T06:30:42;10.80;;;5.57;;
60088;SDS011;45961;53.574;55.878;2022-12-10T06:31:47;7.93;;;4.18;;
60088;SDS011;45961;53.574;55.878;2022-12-10T06:32:49;12.63;;;5.20;;
60088;SDS011;45961;53.574;55.878;2022-12-10T06:33:51;10.75;;;4.35;;
60088;SDS011;45961;53.574;55.878;2022-12-10T06:34:54;8.80;;;3.95;;
60088;SDS011;45961;53.574;55.878;2022-12-10T06:35:55;7.85;;;4.40;;
60088;SDS011;45961;53.574;55.878;2022-12-10T06:36:57;8.63;;;4.50;;
60088;SDS011;45961;53.574;55.878;2022-12-10T06:37:59;8.35;;;4.07;;
60088;SDS011;45961;53.574;55.878;2022-12-10T06:39:00;7.28;;;4.13;;
60088;SDS011;45961;53.574;55.878;2022-12-10T06:41:04;7.40;;;4.97;;
60088;SDS011;45961;53.574;55.878;2022-12-10T06:42:09;11.98;;;4.43;;
60088;SDS011;45961;53.574;55.878;2022-12-10T06:44:12;6.30;;;4.60;;
60088;SDS011;45961;53.574;55.878;2022-12-10T06:45:13;12.27;;;5.82;;
60088;SDS011;45961;53.574;55.878;2022-12-10T06:47:17;8.18;;;3.45;;
60088;SDS011;45961;53.574;55.878;2022-12-10T06:48:18;11.57;;;6.45;;
60088;SDS011;45961;53.574;55.878;2022-12-10T06:49:19;13.13;;;5.88;;
60088;SDS011;45961;53.574;55.878;2022-12-10T06:50:21;10.73;;;5.93;;
60088;SDS011;45961;53.574;55.878;2022-12-10T06:52:23;18.08;;;7.18;;
60088;SDS011;45961;53.574;55.878;2022-12-10T06:53:24;15.55;;;8.82;;
60088;SDS011;45961;53.574;55.878;2022-12-10T06:54:25;19.75;;;9.35;;
60088;SDS011;45961;53.574;55.878;2022-12-10T06:55:27;29.10;;;11.93;;
60088;SDS011;45961;53.574;55.878;2022-12-10T06:56:33;21.45;;;10.90;;
60088;SDS011;45961;53.574;55.878;2022-12-10T06:57:37;22.83;;;12.95;;
60088;SDS011;45961;53.574;55.878;2022-12-10T06:59:41;24.85;;;12.20;;
60088;SDS011;45961;53.574;55.878;2022-12-10T07:01:43;24.42;;;13.38;;
60088;SDS011;45961;53.574;55.878;2022-12-10T07:02:48;23.13;;;12.13;;
60088;SDS011;45961;53.574;55.878;2022-12-10T07:03:50;29.42;;;14.30;;
60088;SDS011;45961;53.574;55.878;2022-12-10T07:04:52;21.55;;;9.88;;
60088;SDS011;45961;53.574;55.878;2022-12-10T07:05:57;22.02;;;9.63;;
60088;SDS011;45961;53.574;55.878;2022-12-10T07:07:02;20.20;;;9.55;;
60088;SDS011;45961;53.574;55.878;2022-12-10T07:08:03;20.60;;;8.65;;
60088;SDS011;45961;53.574;55.878;2022-12-10T07:09:07;17.05;;;8.88;;
60088;SDS011;45961;53.574;55.878;2022-12-10T07:10:10;16.23;;;9.48;;
60088;SDS011;45961;53.574;55.878;2022-12-10T07:11:12;17.33;;;9.55;;
60088;SDS011;45961;53.574;55.878;2022-12-10T07:12:15;19.15;;;10.82;;
60088;SDS011;45961;53.574;55.878;2022-12-10T07:13:19;18.67;;;10.15;;
60088;SDS011;45961;53.574;55.878;2022-12-10T07:14:20;22.05;;;11.45;;
60088;SDS011;45961;53.574;55.878;2022-12-10T07:15:21;26.02;;;12.23;;
60088;SDS011;45961;53.574;55.878;2022-12-10T07:16:28;29.05;;;13.23;;
60088;SDS011;45961;53.574;55.878;2022-12-10T07:17:31;26.05;;;13.02;;
60088;SDS011;45961;53.574;55.878;2022-12-10T07:18:36;23.20;;;12.70;;